createdAt,value
2023-02-16T00:01:59.677Z,76.35
2023-02-16T00:05:01.193Z,76.54
2023-02-16T00:08:02.996Z,76.57
2023-02-16T00:11:04.820Z,76.54
2023-02-16T00:14:09.432Z,76.80
2023-02-16T00:17:11.503Z,76.75
2023-02-16T00:20:17.503Z,76.79
2023-02-16T00:23:19.080Z,76.72
2023-02-16T00:26:24.085Z,76.66
2023-02-16T00:29:32.463Z,76.39
2023-02-16T00:32:34.022Z,76.57
2023-02-16T00:35:35.566Z,76.26
2023-02-16T00:38:37.384Z,76.81
2023-02-16T00:41:39.336Z,76.89
2023-02-16T00:44:46.110Z,76.73
2023-02-16T00:47:50.402Z,76.87
2023-02-16T00:50:52.013Z,76.69
2023-02-16T00:53:53.552Z,76.97
2023-02-16T00:56:55.099Z,77.16
2023-02-16T01:00:06.808Z,76.86
2023-02-16T01:03:16.110Z,76.60
2023-02-16T01:06:17.799Z,76.84
2023-02-16T01:09:20.794Z,76.70
2023-02-16T01:12:22.377Z,77.15
2023-02-16T01:15:25.250Z,77.09
2023-02-16T01:18:26.867Z,77.17
2023-02-16T01:21:28.468Z,77.25
2023-02-16T01:24:30.173Z,77.53
2023-02-16T01:27:31.871Z,77.71
2023-02-16T01:30:33.469Z,77.57
2023-02-16T01:33:35.043Z,77.39
2023-02-16T01:36:39.468Z,77.43
2023-02-16T01:39:44.339Z,77.46
2023-02-16T01:42:50.778Z,77.40
2023-02-16T01:46:07.692Z,77.53
2023-02-16T01:49:17.565Z,77.38
2023-02-16T01:52:25.199Z,77.36
2023-02-16T01:55:31.513Z,77.75
2023-02-16T01:58:42.855Z,77.39
2023-02-16T02:01:51.189Z,77.56
2023-02-16T02:04:55.990Z,77.63
2023-02-16T02:08:19.307Z,77.74
2023-02-16T02:11:28.096Z,77.85
2023-02-16T02:14:35.529Z,78.48
2023-02-16T02:17:37.064Z,78.27
2023-02-16T02:20:53.033Z,78.20
2023-02-16T02:24:32.096Z,77.16
2023-02-16T02:27:37.693Z,77.31
2023-02-16T02:30:48.635Z,77.47
2023-02-16T02:34:03.913Z,77.12
2023-02-16T02:37:28.964Z,77.33
2023-02-16T02:41:12.630Z,77.53
2023-02-16T02:44:18.932Z,77.89
2023-02-16T02:47:21.564Z,78.18
2023-02-16T02:50:42.037Z,78.61
2023-02-16T02:53:47.971Z,78.58
2023-02-16T02:57:11.769Z,78.48
2023-02-16T03:00:37.817Z,78.24
2023-02-16T03:03:44.375Z,78.56
2023-02-16T03:06:49.106Z,78.43
2023-02-16T03:09:50.964Z,77.87
2023-02-16T03:12:52.552Z,77.71
2023-02-16T03:15:54.681Z,77.59
2023-02-16T03:18:56.466Z,77.56
2023-02-16T03:21:58.560Z,77.27
2023-02-16T03:25:00.174Z,77.29
2023-02-16T03:28:04.334Z,77.46
2023-02-16T03:31:07.576Z,78.03
2023-02-16T03:34:09.406Z,78.49
2023-02-16T03:37:11.025Z,78.51
2023-02-16T03:40:14.894Z,77.94
2023-02-16T03:43:16.636Z,77.65
2023-02-16T03:46:18.379Z,77.53
2023-02-16T03:49:20.740Z,77.31
2023-02-16T03:52:22.667Z,77.51
2023-02-16T03:55:25.415Z,78.21
2023-02-16T03:58:27.139Z,79.55
2023-02-16T04:01:28.993Z,80.18
2023-02-16T04:04:30.834Z,81.40
2023-02-16T04:07:33.554Z,81.38
2023-02-16T04:10:37.000Z,82.13
2023-02-16T04:13:38.846Z,80.30
2023-02-16T04:16:40.836Z,79.05
2023-02-16T04:19:42.379Z,78.93
2023-02-16T04:22:45.107Z,79.86
2023-02-16T04:25:46.606Z,80.88
2023-02-16T04:28:48.290Z,80.92
2023-02-16T04:31:50.240Z,81.30
2023-02-16T04:34:51.874Z,80.44
2023-02-16T04:37:53.465Z,79.89
2023-02-16T04:40:54.961Z,79.27
2023-02-16T04:43:56.512Z,79.16
2023-02-16T04:46:58.142Z,78.73
2023-02-16T04:49:59.798Z,78.80
2023-02-16T04:53:01.384Z,79.15
2023-02-16T04:56:03.175Z,79.20
2023-02-16T04:59:04.680Z,79.85
2023-02-16T05:02:06.308Z,80.08
2023-02-16T05:05:08.534Z,79.24
2023-02-16T05:08:10.270Z,78.48
2023-02-16T05:11:12.285Z,78.33
2023-02-16T05:14:26.175Z,78.91
2023-02-16T05:17:27.855Z,79.66
2023-02-16T05:20:29.645Z,80.32
2023-02-16T05:23:31.238Z,80.78
2023-02-16T05:26:34.412Z,80.89
2023-02-16T05:29:36.031Z,82.32
2023-02-16T05:32:37.564Z,82.16
2023-02-16T05:35:39.227Z,82.30
2023-02-16T05:38:40.878Z,82.69
2023-02-16T05:41:42.597Z,81.06
2023-02-16T05:44:44.211Z,80.68
2023-02-16T05:47:47.291Z,80.56
2023-02-16T05:50:49.059Z,80.54
2023-02-16T05:53:51.059Z,80.05
2023-02-16T05:56:52.850Z,80.01
2023-02-16T05:59:54.328Z,79.89
2023-02-16T06:02:55.915Z,80.25
2023-02-16T06:06:00.471Z,80.89
2023-02-16T06:09:02.108Z,81.01
2023-02-16T06:12:04.174Z,81.68
2023-02-16T06:15:05.992Z,82.28
2023-02-16T06:18:07.451Z,83.17
2023-02-16T06:21:09.167Z,83.51
2023-02-16T06:24:12.516Z,84.59
2023-02-16T06:27:14.188Z,85.07
2023-02-16T06:30:16.549Z,82.42
2023-02-16T06:33:18.147Z,81.89
2023-02-16T06:36:20.778Z,81.38
2023-02-16T06:39:22.559Z,80.73
2023-02-16T06:42:24.097Z,80.48
2023-02-16T06:45:25.645Z,79.84
2023-02-16T06:48:27.367Z,79.46
2023-02-16T06:51:29.574Z,79.05
2023-02-16T06:54:31.230Z,78.42
2023-02-16T06:57:32.801Z,78.35
2023-02-16T07:00:34.711Z,78.31
2023-02-16T07:03:41.884Z,77.76
2023-02-16T07:06:43.510Z,77.10
2023-02-16T07:09:45.218Z,77.03
2023-02-16T07:12:47.957Z,76.87
2023-02-16T07:15:49.600Z,76.98
2023-02-16T07:18:51.325Z,77.17
2023-02-16T07:21:52.913Z,77.36
2023-02-16T07:24:54.490Z,77.61
2023-02-16T07:27:56.176Z,77.77
2023-02-16T07:30:57.969Z,77.67
2023-02-16T07:33:59.467Z,77.58
2023-02-16T07:37:01.051Z,77.70
2023-02-16T07:40:02.686Z,77.22
2023-02-16T07:43:05.757Z,76.93
2023-02-16T07:46:07.355Z,76.66
2023-02-16T07:49:09.113Z,75.73
2023-02-16T07:52:10.966Z,75.81
2023-02-16T07:55:12.626Z,75.31
2023-02-16T07:58:14.678Z,74.72
2023-02-16T08:01:16.181Z,74.96
2023-02-16T08:04:17.846Z,74.67
2023-02-16T08:07:21.078Z,74.58
2023-02-16T08:10:22.744Z,74.15
2023-02-16T08:13:24.572Z,73.93
2023-02-16T08:16:27.078Z,73.32
2023-02-16T08:19:28.911Z,73.31
2023-02-16T08:22:30.951Z,73.08
2023-02-16T08:25:36.309Z,72.53
2023-02-16T08:28:38.090Z,72.01
2023-02-16T08:31:40.099Z,70.94
2023-02-16T08:34:43.382Z,70.66
2023-02-16T08:37:45.272Z,70.15
2023-02-16T08:40:50.364Z,70.83
2023-02-16T08:43:52.106Z,70.76
2023-02-16T08:46:55.628Z,71.24
2023-02-16T08:49:57.221Z,70.38
2023-02-16T08:52:58.645Z,68.48
2023-02-16T08:56:04.376Z,67.93
2023-02-16T08:59:06.137Z,68.10
2023-02-16T09:02:07.744Z,67.52
2023-02-16T09:05:09.474Z,66.68
2023-02-16T09:08:11.165Z,66.33
2023-02-16T09:11:15.323Z,63.66
2023-02-16T09:14:20.883Z,63.56
2023-02-16T09:17:22.422Z,65.21
2023-02-16T09:20:24.091Z,64.77
2023-02-16T09:23:25.685Z,63.87
2023-02-16T09:26:30.247Z,62.19
2023-02-16T09:29:31.959Z,61.46
2023-02-16T09:32:33.680Z,61.96
2023-02-16T09:35:38.204Z,62.91
2023-02-16T09:38:40.310Z,60.21
2023-02-16T09:41:57.588Z,57.45
2023-02-16T09:45:07.306Z,59.25
2023-02-16T09:48:23.494Z,58.09
2023-02-16T09:51:34.763Z,57.98
2023-02-16T09:54:39.347Z,56.80
2023-02-16T09:58:07.785Z,56.98
2023-02-16T10:01:19.897Z,57.35
2023-02-16T10:04:36.132Z,54.56
2023-02-16T10:07:57.635Z,58.14
2023-02-16T10:11:08.110Z,58.12
2023-02-16T10:14:30.489Z,59.02
2023-02-16T10:17:38.244Z,58.02
2023-02-16T10:20:43.361Z,58.65
2023-02-16T10:24:03.064Z,58.95
2023-02-16T10:27:08.179Z,58.34
2023-02-16T10:30:22.058Z,58.12
2023-02-16T10:33:36.021Z,57.44
2023-02-16T10:36:49.647Z,55.48
2023-02-16T10:40:12.316Z,55.13
2023-02-16T10:43:21.688Z,55.59
2023-02-16T10:46:26.287Z,54.56
2023-02-16T10:49:30.564Z,56.75
2023-02-16T10:52:37.516Z,58.16
2023-02-16T10:55:39.179Z,59.91
2023-02-16T10:58:41.225Z,58.64
2023-02-16T11:01:46.297Z,56.01
2023-02-16T11:04:49.756Z,54.11
2023-02-16T11:07:56.561Z,52.56
2023-02-16T11:10:58.262Z,51.51
2023-02-16T11:14:07.999Z,54.26
2023-02-16T11:17:12.770Z,54.48
2023-02-16T11:20:32.468Z,53.98
2023-02-16T11:23:38.989Z,53.87
2023-02-16T11:26:40.665Z,54.78
2023-02-16T11:29:42.358Z,53.30
2023-02-16T11:32:43.896Z,54.42
2023-02-16T11:35:45.880Z,54.20
2023-02-16T11:39:12.122Z,53.91
2023-02-16T11:42:36.368Z,53.51
2023-02-16T11:45:37.911Z,54.23
2023-02-16T11:48:39.618Z,52.54
2023-02-16T11:51:41.223Z,51.58
2023-02-16T11:54:52.693Z,52.70
2023-02-16T11:57:54.458Z,52.74
2023-02-16T12:01:20.581Z,52.71
2023-02-16T12:04:48.344Z,51.18
2023-02-16T12:08:06.218Z,53.53
2023-02-16T12:11:16.861Z,53.00
2023-02-16T12:14:31.498Z,53.17
2023-02-16T12:17:48.526Z,53.91
2023-02-16T12:21:04.052Z,54.34
2023-02-16T12:24:30.747Z,53.39
2023-02-16T12:27:44.934Z,54.48
2023-02-16T12:30:55.586Z,54.39
2023-02-16T12:34:28.327Z,55.06
2023-02-16T12:37:48.868Z,55.08
2023-02-16T12:40:54.163Z,55.55
2023-02-16T12:44:48.500Z,55.34
2023-02-16T12:47:58.282Z,54.93
2023-02-16T12:51:02.428Z,54.92
2023-02-16T12:54:17.859Z,55.52
2023-02-16T12:57:25.103Z,54.49
2023-02-16T13:00:46.111Z,54.53
2023-02-16T13:03:52.578Z,55.34
2023-02-16T13:07:23.571Z,55.67
2023-02-16T13:10:56.457Z,55.63
2023-02-16T13:14:01.724Z,55.02
2023-02-16T13:17:11.419Z,54.93
2023-02-16T13:20:19.509Z,55.22
2023-02-16T13:23:50.599Z,54.58
2023-02-16T13:27:06.330Z,53.02
2023-02-16T13:30:07.984Z,55.10
2023-02-16T13:33:25.820Z,55.36
2023-02-16T13:36:44.933Z,56.26
2023-02-16T13:39:55.752Z,55.93
2023-02-16T13:43:14.342Z,56.42
2023-02-16T13:46:28.939Z,56.12
2023-02-16T13:49:38.740Z,56.70
2023-02-16T13:52:41.624Z,57.08
2023-02-16T13:55:43.512Z,57.55
2023-02-16T13:58:45.128Z,57.71
2023-02-16T14:01:48.280Z,57.88
2023-02-16T14:04:50.051Z,57.06
2023-02-16T14:08:18.630Z,56.51
2023-02-16T14:11:20.304Z,57.56
2023-02-16T14:14:31.132Z,57.82
2023-02-16T14:17:34.677Z,57.85
2023-02-16T14:20:36.386Z,58.55
2023-02-16T14:23:38.008Z,58.61
2023-02-16T14:26:53.522Z,58.99
2023-02-16T14:29:58.187Z,59.34
2023-02-16T14:33:12.133Z,59.67
2023-02-16T14:36:22.025Z,59.68
2023-02-16T14:39:23.636Z,60.22
2023-02-16T14:42:29.447Z,60.21
2023-02-16T14:45:52.632Z,60.62
2023-02-16T14:49:10.141Z,60.69
2023-02-16T14:52:37.889Z,60.89
2023-02-16T14:55:54.584Z,60.97
2023-02-16T14:59:01.314Z,61.28
2023-02-16T15:02:24.446Z,61.25
2023-02-16T15:05:33.790Z,60.88
2023-02-16T15:08:38.012Z,60.89
2023-02-16T15:11:50.626Z,60.68
2023-02-16T15:15:04.460Z,60.86
2023-02-16T15:18:06.019Z,61.12
2023-02-16T15:21:12.426Z,61.02
2023-02-16T15:24:22.993Z,61.30
2023-02-16T15:27:25.101Z,61.61
2023-02-16T15:30:38.913Z,61.58
2023-02-16T15:33:42.347Z,62.05
2023-02-16T15:36:45.268Z,62.40
2023-02-16T15:40:02.944Z,62.54
2023-02-16T15:43:18.508Z,62.69
2023-02-16T15:46:24.694Z,62.86
2023-02-16T15:49:28.528Z,62.82
2023-02-16T15:52:35.414Z,62.97
2023-02-16T15:55:43.076Z,62.85
2023-02-16T15:58:44.657Z,63.00
2023-02-16T16:01:46.640Z,63.42
2023-02-16T16:04:54.450Z,63.42
2023-02-16T16:07:57.250Z,63.65
2023-02-16T16:10:59.038Z,63.80
2023-02-16T16:14:02.176Z,63.78
2023-02-16T16:17:03.993Z,64.05
2023-02-16T16:20:27.581Z,64.11
2023-02-16T16:23:29.434Z,64.29
2023-02-16T16:26:32.492Z,64.27
2023-02-16T16:29:42.966Z,64.22
2023-02-16T16:32:44.748Z,64.35
2023-02-16T16:35:48.566Z,64.50
2023-02-16T16:39:08.679Z,64.71
2023-02-16T16:42:22.186Z,64.82
2023-02-16T16:45:41.435Z,65.07
2023-02-16T16:48:48.985Z,65.38
2023-02-16T16:51:53.651Z,65.39
2023-02-16T16:54:55.311Z,65.49
2023-02-16T16:58:06.669Z,65.34
2023-02-16T17:01:08.525Z,65.20
2023-02-16T17:04:10.227Z,65.58
2023-02-16T17:07:11.843Z,65.64
2023-02-16T17:10:13.430Z,65.87
2023-02-16T17:13:16.793Z,65.99
2023-02-16T17:16:28.067Z,66.65
2023-02-16T17:19:29.664Z,67.31
2023-02-16T17:22:31.250Z,67.67
2023-02-16T17:25:34.522Z,67.52
2023-02-16T17:28:36.209Z,67.89
2023-02-16T17:31:37.959Z,68.26
2023-02-16T17:34:39.654Z,67.60
2023-02-16T17:37:41.227Z,67.33
2023-02-16T17:40:42.985Z,67.21
2023-02-16T17:43:44.640Z,67.13
2023-02-16T17:46:46.395Z,67.13
2023-02-16T17:49:47.980Z,67.38
2023-02-16T17:52:49.605Z,67.99
2023-02-16T17:55:53.603Z,67.99
2023-02-16T17:58:55.292Z,68.10
2023-02-16T18:01:56.894Z,68.19
2023-02-16T18:04:58.529Z,68.37
2023-02-16T18:08:00.129Z,68.20
2023-02-16T18:11:01.614Z,67.95
2023-02-16T18:14:03.265Z,68.21
2023-02-16T18:17:05.596Z,68.03
2023-02-16T18:20:07.689Z,68.26
2023-02-16T18:23:09.527Z,68.20
2023-02-16T18:26:14.984Z,68.35
2023-02-16T18:29:16.929Z,68.42
2023-02-16T18:32:18.556Z,68.94
2023-02-16T18:35:20.455Z,69.21
2023-02-16T18:38:23.151Z,69.14
2023-02-16T18:41:24.785Z,69.15
2023-02-16T18:44:26.872Z,69.25
2023-02-16T18:47:28.570Z,69.07
2023-02-16T18:50:30.452Z,69.02
2023-02-16T18:53:32.218Z,68.99
2023-02-16T18:56:33.829Z,68.85
2023-02-16T18:59:35.648Z,68.93
2023-02-16T19:02:37.129Z,68.99
2023-02-16T19:05:38.827Z,69.05
2023-02-16T19:08:40.573Z,68.97
2023-02-16T19:11:42.161Z,68.94
2023-02-16T19:14:43.843Z,69.26
2023-02-16T19:17:45.584Z,69.31
2023-02-16T19:20:47.202Z,69.56
2023-02-16T19:23:49.079Z,70.06
2023-02-16T19:26:50.711Z,70.35
2023-02-16T19:29:52.416Z,70.51
2023-02-16T19:32:53.948Z,70.22
2023-02-16T19:36:04.044Z,69.96
2023-02-16T19:39:05.933Z,69.92
2023-02-16T19:42:07.519Z,70.07
2023-02-16T19:45:09.562Z,70.23
2023-02-16T19:48:11.252Z,70.23
2023-02-16T19:51:13.908Z,70.30
2023-02-16T19:54:15.543Z,70.39
2023-02-16T19:57:17.124Z,70.02
2023-02-16T20:00:18.907Z,69.96
2023-02-16T20:03:20.611Z,70.14
2023-02-16T20:06:23.552Z,70.25
2023-02-16T20:09:25.275Z,70.38
2023-02-16T20:12:26.788Z,70.61
2023-02-16T20:15:28.672Z,70.72
2023-02-16T20:18:30.205Z,71.36
2023-02-16T20:21:31.988Z,71.71
2023-02-16T20:24:33.476Z,72.36
2023-02-16T20:27:35.116Z,72.48
2023-02-16T20:30:36.701Z,72.88
2023-02-16T20:33:38.344Z,73.08
2023-02-16T20:36:40.034Z,73.33
2023-02-16T20:39:41.870Z,72.81
2023-02-16T20:42:43.532Z,72.84
2023-02-16T20:45:45.152Z,72.96
2023-02-16T20:48:46.696Z,73.81
2023-02-16T20:51:48.388Z,73.42
2023-02-16T20:54:49.974Z,72.92
2023-02-16T20:57:51.671Z,72.70
2023-02-16T21:00:53.442Z,72.69
2023-02-16T21:03:56.169Z,72.40
2023-02-16T21:06:57.710Z,72.05
2023-02-16T21:09:59.341Z,72.03
2023-02-16T21:13:00.855Z,72.20
2023-02-16T21:16:02.478Z,72.09
2023-02-16T21:19:11.690Z,72.08
2023-02-16T21:22:21.787Z,72.27
2023-02-16T21:25:23.420Z,72.04
2023-02-16T21:28:25.122Z,71.83
2023-02-16T21:31:27.176Z,71.70
2023-02-16T21:34:28.885Z,72.42
2023-02-16T21:37:30.510Z,72.95
2023-02-16T21:40:32.263Z,72.50
2023-02-16T21:43:33.820Z,72.49
2023-02-16T21:46:38.264Z,72.22
2023-02-16T21:49:39.850Z,72.27
2023-02-16T21:52:41.426Z,72.36
2023-02-16T21:55:43.101Z,72.41
2023-02-16T21:58:45.097Z,72.46
2023-02-16T22:01:49.109Z,72.58
2023-02-16T22:04:50.856Z,72.72
2023-02-16T22:07:52.447Z,72.93
2023-02-16T22:10:54.059Z,72.96
2023-02-16T22:13:56.912Z,72.72
2023-02-16T22:16:58.930Z,72.96
2023-02-16T22:20:00.499Z,72.73
2023-02-16T22:23:03.062Z,72.80
2023-02-16T22:26:06.333Z,73.09
2023-02-16T22:29:08.898Z,73.21
2023-02-16T22:32:13.561Z,72.97
2023-02-16T22:35:15.441Z,72.82
2023-02-16T22:38:17.275Z,72.73
2023-02-16T22:41:18.806Z,72.65
2023-02-16T22:44:20.722Z,72.55
2023-02-16T22:47:22.278Z,72.72
2023-02-16T22:50:23.930Z,73.17
2023-02-16T22:53:27.029Z,73.95
2023-02-16T22:56:30.515Z,73.87
2023-02-16T22:59:32.149Z,73.99
2023-02-16T23:02:34.445Z,73.84
2023-02-16T23:05:36.241Z,73.91
2023-02-16T23:08:37.802Z,73.61
2023-02-16T23:11:39.705Z,73.51
2023-02-16T23:14:41.375Z,73.20
2023-02-16T23:17:42.920Z,73.17
2023-02-16T23:20:44.611Z,73.16
2023-02-16T23:23:47.849Z,73.21
2023-02-16T23:26:49.551Z,73.32
2023-02-16T23:29:51.072Z,73.34
2023-02-16T23:32:52.884Z,73.33
2023-02-16T23:35:54.414Z,73.30
2023-02-16T23:39:05.765Z,73.43
2023-02-16T23:42:07.298Z,73.62
2023-02-16T23:45:09.284Z,73.95
2023-02-16T23:48:10.818Z,74.31
2023-02-16T23:51:12.739Z,74.19
2023-02-16T23:54:14.549Z,74.88
2023-02-16T23:57:16.402Z,74.96
